sensor_id;sensor_type;location;lat;lon;timestamp;temperature;humidity
16976;DHT22;8604;48.148;-1.786;2023-04-16T00:01:23;7.40;99.90
16976;DHT22;8604;48.148;-1.786;2023-04-16T00:03:51;7.40;99.90
16976;DHT22;8604;48.148;-1.786;2023-04-16T00:06:20;7.40;99.90
16976;DHT22;8604;48.148;-1.786;2023-04-16T00:08:48;7.30;99.90
16976;DHT22;8604;48.148;-1.786;2023-04-16T00:11:17;7.30;99.90
16976;DHT22;8604;48.148;-1.786;2023-04-16T00:13:45;7.30;99.90
16976;DHT22;8604;48.148;-1.786;2023-04-16T00:16:18;7.30;99.90
16976;DHT22;8604;48.148;-1.786;2023-04-16T00:18:46;7.30;99.90
16976;DHT22;8604;48.148;-1.786;2023-04-16T00:21:15;7.30;99.90
16976;DHT22;8604;48.148;-1.786;2023-04-16T00:23:43;7.30;99.90
16976;DHT22;8604;48.148;-1.786;2023-04-16T00:26:11;7.30;99.90
16976;DHT22;8604;48.148;-1.786;2023-04-16T00:28:42;7.30;99.90
16976;DHT22;8604;48.148;-1.786;2023-04-16T00:31:11;7.30;99.90
16976;DHT22;8604;48.148;-1.786;2023-04-16T00:33:41;7.30;99.90
16976;DHT22;8604;48.148;-1.786;2023-04-16T00:36:09;7.30;99.90
16976;DHT22;8604;48.148;-1.786;2023-04-16T00:38:37;7.30;99.90
16976;DHT22;8604;48.148;-1.786;2023-04-16T00:41:05;7.30;99.90
16976;DHT22;8604;48.148;-1.786;2023-04-16T00:43:34;7.30;99.90
16976;DHT22;8604;48.148;-1.786;2023-04-16T00:46:04;7.30;99.90
16976;DHT22;8604;48.148;-1.786;2023-04-16T00:48:33;7.30;99.90
16976;DHT22;8604;48.148;-1.786;2023-04-16T00:51:05;7.30;99.90
16976;DHT22;8604;48.148;-1.786;2023-04-16T00:53:33;7.20;99.90
16976;DHT22;8604;48.148;-1.786;2023-04-16T00:56:03;7.20;99.90
16976;DHT22;8604;48.148;-1.786;2023-04-16T00:58:32;7.30;99.90
16976;DHT22;8604;48.148;-1.786;2023-04-16T01:01:01;7.30;99.90
16976;DHT22;8604;48.148;-1.786;2023-04-16T01:03:36;7.30;99.90
16976;DHT22;8604;48.148;-1.786;2023-04-16T01:06:07;7.30;99.90
16976;DHT22;8604;48.148;-1.786;2023-04-16T01:08:35;7.30;99.90
16976;DHT22;8604;48.148;-1.786;2023-04-16T01:11:04;7.30;99.90
16976;DHT22;8604;48.148;-1.786;2023-04-16T01:13:34;7.20;99.90
16976;DHT22;8604;48.148;-1.786;2023-04-16T01:16:05;7.20;99.90
16976;DHT22;8604;48.148;-1.786;2023-04-16T01:18:34;7.10;99.90
16976;DHT22;8604;48.148;-1.786;2023-04-16T01:21:04;7.10;99.90
16976;DHT22;8604;48.148;-1.786;2023-04-16T01:23:33;7.10;99.90
16976;DHT22;8604;48.148;-1.786;2023-04-16T01:26:01;7.10;99.90
16976;DHT22;8604;48.148;-1.786;2023-04-16T01:28:30;7.10;99.90
16976;DHT22;8604;48.148;-1.786;2023-04-16T01:30:58;7.20;99.90
16976;DHT22;8604;48.148;-1.786;2023-04-16T01:33:49;7.20;99.90
16976;DHT22;8604;48.148;-1.786;2023-04-16T01:36:19;7.20;99.90
16976;DHT22;8604;48.148;-1.786;2023-04-16T01:38:48;7.20;99.90
16976;DHT22;8604;48.148;-1.786;2023-04-16T01:41:16;7.30;99.90
16976;DHT22;8604;48.148;-1.786;2023-04-16T01:43:45;7.30;99.90
16976;DHT22;8604;48.148;-1.786;2023-04-16T01:46:17;7.30;99.90
16976;DHT22;8604;48.148;-1.786;2023-04-16T01:48:48;7.30;99.90
16976;DHT22;8604;48.148;-1.786;2023-04-16T01:51:19;7.20;99.90
16976;DHT22;8604;48.148;-1.786;2023-04-16T01:53:48;7.20;99.90
16976;DHT22;8604;48.148;-1.786;2023-04-16T01:56:17;7.20;99.90
16976;DHT22;8604;48.148;-1.786;2023-04-16T01:58:46;7.20;99.90
16976;DHT22;8604;48.148;-1.786;2023-04-16T02:01:16;7.20;99.90
16976;DHT22;8604;48.148;-1.786;2023-04-16T02:03:46;7.20;99.90
16976;DHT22;8604;48.148;-1.786;2023-04-16T02:06:14;7.10;99.90
16976;DHT22;8604;48.148;-1.786;2023-04-16T02:08:44;7.10;99.90
16976;DHT22;8604;48.148;-1.786;2023-04-16T02:11:14;7.10;99.90
16976;DHT22;8604;48.148;-1.786;2023-04-16T02:13:42;7.10;99.90
16976;DHT22;8604;48.148;-1.786;2023-04-16T02:16:11;7.10;99.90
16976;DHT22;8604;48.148;-1.786;2023-04-16T02:18:45;7.10;99.90
16976;DHT22;8604;48.148;-1.786;2023-04-16T02:21:16;7.10;99.90
16976;DHT22;8604;48.148;-1.786;2023-04-16T02:23:46;7.00;99.90
16976;DHT22;8604;48.148;-1.786;2023-04-16T02:26:21;7.00;99.90
16976;DHT22;8604;48.148;-1.786;2023-04-16T02:28:50;7.10;99.90
16976;DHT22;8604;48.148;-1.786;2023-04-16T02:31:23;7.10;99.90
16976;DHT22;8604;48.148;-1.786;2023-04-16T02:33:52;7.00;99.90
16976;DHT22;8604;48.148;-1.786;2023-04-16T02:36:20;7.00;99.90
16976;DHT22;8604;48.148;-1.786;2023-04-16T02:38:50;7.00;99.90
16976;DHT22;8604;48.148;-1.786;2023-04-16T02:41:19;7.00;99.90
16976;DHT22;8604;48.148;-1.786;2023-04-16T02:43:47;7.00;99.90
16976;DHT22;8604;48.148;-1.786;2023-04-16T02:46:15;7.00;99.90
16976;DHT22;8604;48.148;-1.786;2023-04-16T02:48:44;7.00;99.90
16976;DHT22;8604;48.148;-1.786;2023-04-16T02:51:12;7.00;99.90
16976;DHT22;8604;48.148;-1.786;2023-04-16T02:53:40;7.00;99.90
16976;DHT22;8604;48.148;-1.786;2023-04-16T02:56:13;7.00;99.90
16976;DHT22;8604;48.148;-1.786;2023-04-16T02:58:41;6.90;99.90
16976;DHT22;8604;48.148;-1.786;2023-04-16T03:01:10;6.90;99.90
16976;DHT22;8604;48.148;-1.786;2023-04-16T03:03:38;6.90;99.90
16976;DHT22;8604;48.148;-1.786;2023-04-16T03:06:06;6.90;99.90
16976;DHT22;8604;48.148;-1.786;2023-04-16T03:08:35;6.90;99.90
16976;DHT22;8604;48.148;-1.786;2023-04-16T03:11:03;6.90;99.90
16976;DHT22;8604;48.148;-1.786;2023-04-16T03:13:33;6.90;99.90
16976;DHT22;8604;48.148;-1.786;2023-04-16T03:16:01;6.90;99.90
16976;DHT22;8604;48.148;-1.786;2023-04-16T03:18:29;6.90;99.90
16976;DHT22;8604;48.148;-1.786;2023-04-16T03:20:58;6.80;99.90
16976;DHT22;8604;48.148;-1.786;2023-04-16T03:23:26;6.90;99.90
16976;DHT22;8604;48.148;-1.786;2023-04-16T03:25:55;6.90;99.90
16976;DHT22;8604;48.148;-1.786;2023-04-16T03:28:23;6.80;99.90
16976;DHT22;8604;48.148;-1.786;2023-04-16T03:30:53;6.80;99.90
16976;DHT22;8604;48.148;-1.786;2023-04-16T03:33:22;6.80;99.90
16976;DHT22;8604;48.148;-1.786;2023-04-16T03:35:55;6.80;99.90
16976;DHT22;8604;48.148;-1.786;2023-04-16T03:38:26;6.70;99.90
16976;DHT22;8604;48.148;-1.786;2023-04-16T03:40:56;6.70;99.90
16976;DHT22;8604;48.148;-1.786;2023-04-16T03:43:25;6.60;99.90
16976;DHT22;8604;48.148;-1.786;2023-04-16T03:45:56;6.60;99.90
16976;DHT22;8604;48.148;-1.786;2023-04-16T03:48:24;6.60;99.90
16976;DHT22;8604;48.148;-1.786;2023-04-16T03:50:53;6.50;99.90
16976;DHT22;8604;48.148;-1.786;2023-04-16T03:53:22;6.50;99.90
16976;DHT22;8604;48.148;-1.786;2023-04-16T03:55:51;6.50;99.90
16976;DHT22;8604;48.148;-1.786;2023-04-16T03:58:20;6.40;99.90
16976;DHT22;8604;48.148;-1.786;2023-04-16T04:00:52;6.40;99.90
16976;DHT22;8604;48.148;-1.786;2023-04-16T04:03:22;6.40;99.90
16976;DHT22;8604;48.148;-1.786;2023-04-16T04:05:53;6.40;99.90
16976;DHT22;8604;48.148;-1.786;2023-04-16T04:08:28;6.40;99.90
16976;DHT22;8604;48.148;-1.786;2023-04-16T04:10:56;6.40;99.90
16976;DHT22;8604;48.148;-1.786;2023-04-16T04:13:25;6.30;99.90
16976;DHT22;8604;48.148;-1.786;2023-04-16T04:15:53;6.30;99.90
16976;DHT22;8604;48.148;-1.786;2023-04-16T04:18:24;6.30;99.90
16976;DHT22;8604;48.148;-1.786;2023-04-16T04:20:52;6.30;99.90
16976;DHT22;8604;48.148;-1.786;2023-04-16T04:23:24;6.20;99.90
16976;DHT22;8604;48.148;-1.786;2023-04-16T04:25:53;6.20;99.90
16976;DHT22;8604;48.148;-1.786;2023-04-16T04:28:21;6.20;99.90
16976;DHT22;8604;48.148;-1.786;2023-04-16T04:30:50;6.20;99.90
16976;DHT22;8604;48.148;-1.786;2023-04-16T04:33:18;6.10;99.90
16976;DHT22;8604;48.148;-1.786;2023-04-16T04:35:48;6.10;99.90
16976;DHT22;8604;48.148;-1.786;2023-04-16T04:38:17;6.10;99.90
16976;DHT22;8604;48.148;-1.786;2023-04-16T04:40:51;6.10;99.90
16976;DHT22;8604;48.148;-1.786;2023-04-16T04:43:22;6.10;99.90
16976;DHT22;8604;48.148;-1.786;2023-04-16T04:45:50;6.10;99.90
16976;DHT22;8604;48.148;-1.786;2023-04-16T04:48:19;6.10;99.90
16976;DHT22;8604;48.148;-1.786;2023-04-16T04:50:53;6.00;99.90
16976;DHT22;8604;48.148;-1.786;2023-04-16T04:53:25;6.00;99.90
16976;DHT22;8604;48.148;-1.786;2023-04-16T04:55:54;6.00;99.90
16976;DHT22;8604;48.148;-1.786;2023-04-16T04:58:32;6.00;99.90
16976;DHT22;8604;48.148;-1.786;2023-04-16T05:01:01;5.90;99.90
16976;DHT22;8604;48.148;-1.786;2023-04-16T05:03:29;5.90;99.90
16976;DHT22;8604;48.148;-1.786;2023-04-16T05:05:59;5.90;99.90
16976;DHT22;8604;48.148;-1.786;2023-04-16T05:08:27;5.90;99.90
16976;DHT22;8604;48.148;-1.786;2023-04-16T05:10:56;5.90;99.90
16976;DHT22;8604;48.148;-1.786;2023-04-16T05:13:24;5.90;99.90
16976;DHT22;8604;48.148;-1.786;2023-04-16T05:15:53;5.90;99.90
16976;DHT22;8604;48.148;-1.786;2023-04-16T05:18:21;5.90;99.90
16976;DHT22;8604;48.148;-1.786;2023-04-16T05:20:49;5.90;99.90
16976;DHT22;8604;48.148;-1.786;2023-04-16T05:23:19;5.90;99.90
16976;DHT22;8604;48.148;-1.786;2023-04-16T05:25:47;5.90;99.90
16976;DHT22;8604;48.148;-1.786;2023-04-16T05:28:16;5.90;99.90
16976;DHT22;8604;48.148;-1.786;2023-04-16T05:30:44;5.90;99.90
16976;DHT22;8604;48.148;-1.786;2023-04-16T05:33:12;6.00;99.90
16976;DHT22;8604;48.148;-1.786;2023-04-16T05:35:41;5.90;99.90
16976;DHT22;8604;48.148;-1.786;2023-04-16T05:38:09;6.00;99.90
16976;DHT22;8604;48.148;-1.786;2023-04-16T05:40:39;6.00;99.90
16976;DHT22;8604;48.148;-1.786;2023-04-16T05:43:07;6.00;99.90
16976;DHT22;8604;48.148;-1.786;2023-04-16T05:45:35;6.00;99.90
16976;DHT22;8604;48.148;-1.786;2023-04-16T05:48:38;6.00;99.90
16976;DHT22;8604;48.148;-1.786;2023-04-16T05:51:21;6.00;99.90
16976;DHT22;8604;48.148;-1.786;2023-04-16T05:54:08;6.00;99.90
16976;DHT22;8604;48.148;-1.786;2023-04-16T05:56:50;6.00;99.90
16976;DHT22;8604;48.148;-1.786;2023-04-16T05:59:40;6.00;99.90
16976;DHT22;8604;48.148;-1.786;2023-04-16T06:03:19;6.10;99.90
16976;DHT22;8604;48.148;-1.786;2023-04-16T06:05:59;6.10;99.90
16976;DHT22;8604;48.148;-1.786;2023-04-16T06:08:47;6.20;99.90
16976;DHT22;8604;48.148;-1.786;2023-04-16T06:11:35;6.30;99.90
16976;DHT22;8604;48.148;-1.786;2023-04-16T06:14:16;6.30;99.90
16976;DHT22;8604;48.148;-1.786;2023-04-16T06:16:58;6.40;99.90
16976;DHT22;8604;48.148;-1.786;2023-04-16T06:19:32;6.40;99.90
16976;DHT22;8604;48.148;-1.786;2023-04-16T06:22:00;6.50;99.90
16976;DHT22;8604;48.148;-1.786;2023-04-16T06:24:43;6.50;99.90
16976;DHT22;8604;48.148;-1.786;2023-04-16T06:27:20;6.60;99.90
16976;DHT22;8604;48.148;-1.786;2023-04-16T06:30:30;6.60;99.90
16976;DHT22;8604;48.148;-1.786;2023-04-16T06:32:52;6.60;99.90
16976;DHT22;8604;48.148;-1.786;2023-04-16T06:35:39;6.70;99.90
16976;DHT22;8604;48.148;-1.786;2023-04-16T06:38:16;6.80;99.90
16976;DHT22;8604;48.148;-1.786;2023-04-16T06:40:47;6.90;99.90
16976;DHT22;8604;48.148;-1.786;2023-04-16T06:43:35;7.10;99.90
16976;DHT22;8604;48.148;-1.786;2023-04-16T06:46:25;7.30;99.90
16976;DHT22;8604;48.148;-1.786;2023-04-16T06:49:22;7.60;99.90
16976;DHT22;8604;48.148;-1.786;2023-04-16T06:51:50;7.80;99.90
16976;DHT22;8604;48.148;-1.786;2023-04-16T06:54:19;7.90;99.90
16976;DHT22;8604;48.148;-1.786;2023-04-16T06:56:47;8.30;99.90
16976;DHT22;8604;48.148;-1.786;2023-04-16T06:59:15;8.60;99.90
16976;DHT22;8604;48.148;-1.786;2023-04-16T07:01:45;8.90;99.90
16976;DHT22;8604;48.148;-1.786;2023-04-16T07:04:13;9.20;99.90
16976;DHT22;8604;48.148;-1.786;2023-04-16T07:06:42;9.40;99.90
16976;DHT22;8604;48.148;-1.786;2023-04-16T07:09:10;9.50;99.90
16976;DHT22;8604;48.148;-1.786;2023-04-16T07:11:39;9.60;99.90
16976;DHT22;8604;48.148;-1.786;2023-04-16T07:14:07;9.60;99.90
16976;DHT22;8604;48.148;-1.786;2023-04-16T07:16:35;9.60;99.90
16976;DHT22;8604;48.148;-1.786;2023-04-16T07:19:05;9.60;99.90
16976;DHT22;8604;48.148;-1.786;2023-04-16T07:21:34;9.80;99.90
16976;DHT22;8604;48.148;-1.786;2023-04-16T07:24:02;10.20;99.90
16976;DHT22;8604;48.148;-1.786;2023-04-16T07:26:31;10.60;99.90
16976;DHT22;8604;48.148;-1.786;2023-04-16T07:28:59;10.90;99.90
16976;DHT22;8604;48.148;-1.786;2023-04-16T07:31:27;11.20;99.90
16976;DHT22;8604;48.148;-1.786;2023-04-16T07:33:57;11.50;99.90
16976;DHT22;8604;48.148;-1.786;2023-04-16T07:36:27;11.90;99.90
16976;DHT22;8604;48.148;-1.786;2023-04-16T07:38:55;12.30;99.90
16976;DHT22;8604;48.148;-1.786;2023-04-16T07:41:24;12.60;99.90
16976;DHT22;8604;48.148;-1.786;2023-04-16T07:43:52;13.10;99.90
16976;DHT22;8604;48.148;-1.786;2023-04-16T07:46:20;13.30;99.90
16976;DHT22;8604;48.148;-1.786;2023-04-16T07:48:50;13.40;99.90
16976;DHT22;8604;48.148;-1.786;2023-04-16T07:51:19;13.70;99.90
16976;DHT22;8604;48.148;-1.786;2023-04-16T07:53:49;14.20;99.90
16976;DHT22;8604;48.148;-1.786;2023-04-16T07:56:17;14.90;99.90
16976;DHT22;8604;48.148;-1.786;2023-04-16T07:58:45;15.40;99.90
16976;DHT22;8604;48.148;-1.786;2023-04-16T08:01:14;16.00;99.90
16976;DHT22;8604;48.148;-1.786;2023-04-16T08:03:42;16.60;99.90
16976;DHT22;8604;48.148;-1.786;2023-04-16T08:06:11;17.20;99.90
16976;DHT22;8604;48.148;-1.786;2023-04-16T08:09:06;17.50;99.90
16976;DHT22;8604;48.148;-1.786;2023-04-16T08:11:35;17.90;99.90
16976;DHT22;8604;48.148;-1.786;2023-04-16T08:14:03;18.20;99.90
16976;DHT22;8604;48.148;-1.786;2023-04-16T08:16:32;18.70;99.90
16976;DHT22;8604;48.148;-1.786;2023-04-16T08:19:00;19.00;99.90
16976;DHT22;8604;48.148;-1.786;2023-04-16T08:21:29;19.40;99.90
16976;DHT22;8604;48.148;-1.786;2023-04-16T08:24:00;19.60;99.90
16976;DHT22;8604;48.148;-1.786;2023-04-16T08:26:30;20.00;99.90
16976;DHT22;8604;48.148;-1.786;2023-04-16T08:28:59;20.30;99.90
16976;DHT22;8604;48.148;-1.786;2023-04-16T08:31:27;20.00;99.90
16976;DHT22;8604;48.148;-1.786;2023-04-16T08:33:56;19.50;99.90
16976;DHT22;8604;48.148;-1.786;2023-04-16T08:36:24;19.00;99.90
16976;DHT22;8604;48.148;-1.786;2023-04-16T08:38:52;18.30;99.90
16976;DHT22;8604;48.148;-1.786;2023-04-16T08:41:21;17.90;99.90
16976;DHT22;8604;48.148;-1.786;2023-04-16T08:43:54;18.20;99.90
16976;DHT22;8604;48.148;-1.786;2023-04-16T08:46:24;18.30;99.90
16976;DHT22;8604;48.148;-1.786;2023-04-16T08:48:54;19.20;99.90
16976;DHT22;8604;48.148;-1.786;2023-04-16T08:51:29;19.70;99.90
16976;DHT22;8604;48.148;-1.786;2023-04-16T08:54:07;20.10;99.90
16976;DHT22;8604;48.148;-1.786;2023-04-16T08:56:40;20.40;99.90
16976;DHT22;8604;48.148;-1.786;2023-04-16T08:59:10;20.60;99.90
16976;DHT22;8604;48.148;-1.786;2023-04-16T09:01:39;20.90;99.90
16976;DHT22;8604;48.148;-1.786;2023-04-16T09:04:08;20.80;99.90
16976;DHT22;8604;48.148;-1.786;2023-04-16T09:06:38;20.60;99.90
16976;DHT22;8604;48.148;-1.786;2023-04-16T09:09:07;20.30;99.90
16976;DHT22;8604;48.148;-1.786;2023-04-16T09:11:38;20.40;99.90
16976;DHT22;8604;48.148;-1.786;2023-04-16T09:14:09;20.90;99.90
16976;DHT22;8604;48.148;-1.786;2023-04-16T09:16:38;21.50;99.90
16976;DHT22;8604;48.148;-1.786;2023-04-16T09:19:08;21.80;99.90
16976;DHT22;8604;48.148;-1.786;2023-04-16T09:21:38;22.00;99.90
16976;DHT22;8604;48.148;-1.786;2023-04-16T09:24:08;22.20;99.90
16976;DHT22;8604;48.148;-1.786;2023-04-16T09:26:36;22.30;99.90
16976;DHT22;8604;48.148;-1.786;2023-04-16T09:29:05;22.50;99.90
16976;DHT22;8604;48.148;-1.786;2023-04-16T09:31:37;22.20;99.90
16976;DHT22;8604;48.148;-1.786;2023-04-16T09:34:07;22.30;99.90
16976;DHT22;8604;48.148;-1.786;2023-04-16T09:36:36;22.50;99.90
16976;DHT22;8604;48.148;-1.786;2023-04-16T09:39:04;22.70;99.90
16976;DHT22;8604;48.148;-1.786;2023-04-16T09:41:33;23.20;99.90
16976;DHT22;8604;48.148;-1.786;2023-04-16T09:44:05;23.60;99.90
16976;DHT22;8604;48.148;-1.786;2023-04-16T09:46:39;23.80;99.90
16976;DHT22;8604;48.148;-1.786;2023-04-16T09:49:12;24.40;99.90
16976;DHT22;8604;48.148;-1.786;2023-04-16T09:51:47;24.80;99.90
16976;DHT22;8604;48.148;-1.786;2023-04-16T09:54:20;23.90;99.90
16976;DHT22;8604;48.148;-1.786;2023-04-16T09:56:49;23.40;99.90
16976;DHT22;8604;48.148;-1.786;2023-04-16T09:59:18;23.20;99.90
16976;DHT22;8604;48.148;-1.786;2023-04-16T10:01:48;23.10;99.90
16976;DHT22;8604;48.148;-1.786;2023-04-16T10:04:28;23.20;99.90
16976;DHT22;8604;48.148;-1.786;2023-04-16T10:07:04;23.60;99.90
16976;DHT22;8604;48.148;-1.786;2023-04-16T10:09:36;23.90;99.90
16976;DHT22;8604;48.148;-1.786;2023-04-16T10:12:06;24.20;99.90
16976;DHT22;8604;48.148;-1.786;2023-04-16T10:14:34;24.60;99.90
16976;DHT22;8604;48.148;-1.786;2023-04-16T10:17:04;24.90;99.90
16976;DHT22;8604;48.148;-1.786;2023-04-16T10:19:33;25.20;99.90
16976;DHT22;8604;48.148;-1.786;2023-04-16T10:22:03;25.30;99.90
16976;DHT22;8604;48.148;-1.786;2023-04-16T10:24:32;25.70;99.90
16976;DHT22;8604;48.148;-1.786;2023-04-16T10:27:01;25.90;99.90
16976;DHT22;8604;48.148;-1.786;2023-04-16T10:29:30;26.20;99.90
16976;DHT22;8604;48.148;-1.786;2023-04-16T10:31:59;26.50;99.90
16976;DHT22;8604;48.148;-1.786;2023-04-16T10:34:30;26.80;99.90
16976;DHT22;8604;48.148;-1.786;2023-04-16T10:36:59;26.40;99.90
16976;DHT22;8604;48.148;-1.786;2023-04-16T10:39:27;26.50;99.90
16976;DHT22;8604;48.148;-1.786;2023-04-16T10:42:06;26.80;99.90
16976;DHT22;8604;48.148;-1.786;2023-04-16T10:44:35;26.60;99.90
16976;DHT22;8604;48.148;-1.786;2023-04-16T10:47:09;26.90;99.90
16976;DHT22;8604;48.148;-1.786;2023-04-16T10:49:40;27.30;99.90
16976;DHT22;8604;48.148;-1.786;2023-04-16T10:52:11;27.30;99.90
16976;DHT22;8604;48.148;-1.786;2023-04-16T10:54:45;27.50;99.90
16976;DHT22;8604;48.148;-1.786;2023-04-16T10:57:16;27.30;99.90
16976;DHT22;8604;48.148;-1.786;2023-04-16T10:59:44;27.30;99.90
16976;DHT22;8604;48.148;-1.786;2023-04-16T11:02:14;27.40;99.90
16976;DHT22;8604;48.148;-1.786;2023-04-16T11:04:46;27.40;99.90
16976;DHT22;8604;48.148;-1.786;2023-04-16T11:07:18;27.60;99.90
16976;DHT22;8604;48.148;-1.786;2023-04-16T11:09:55;27.30;99.90
16976;DHT22;8604;48.148;-1.786;2023-04-16T11:12:26;26.30;99.90
16976;DHT22;8604;48.148;-1.786;2023-04-16T11:15:00;25.50;99.90
16976;DHT22;8604;48.148;-1.786;2023-04-16T11:17:32;24.80;99.90
16976;DHT22;8604;48.148;-1.786;2023-04-16T11:20:02;24.10;99.90
16976;DHT22;8604;48.148;-1.786;2023-04-16T11:22:45;23.40;99.90
16976;DHT22;8604;48.148;-1.786;2023-04-16T11:25:18;22.90;99.90
16976;DHT22;8604;48.148;-1.786;2023-04-16T11:27:47;22.60;99.90
16976;DHT22;8604;48.148;-1.786;2023-04-16T11:30:16;22.30;99.90
16976;DHT22;8604;48.148;-1.786;2023-04-16T11:32:45;22.30;99.90
16976;DHT22;8604;48.148;-1.786;2023-04-16T11:35:16;22.70;99.90
16976;DHT22;8604;48.148;-1.786;2023-04-16T11:37:45;23.00;99.90
16976;DHT22;8604;48.148;-1.786;2023-04-16T11:40:14;23.30;99.90
16976;DHT22;8604;48.148;-1.786;2023-04-16T11:42:43;23.60;99.90
16976;DHT22;8604;48.148;-1.786;2023-04-16T11:45:11;24.10;99.90
16976;DHT22;8604;48.148;-1.786;2023-04-16T11:47:44;24.50;99.90
16976;DHT22;8604;48.148;-1.786;2023-04-16T11:50:22;24.70;99.90
16976;DHT22;8604;48.148;-1.786;2023-04-16T11:52:53;24.90;99.90
16976;DHT22;8604;48.148;-1.786;2023-04-16T11:55:23;24.80;99.90
16976;DHT22;8604;48.148;-1.786;2023-04-16T11:57:51;24.90;99.90
16976;DHT22;8604;48.148;-1.786;2023-04-16T12:00:19;24.80;99.90
16976;DHT22;8604;48.148;-1.786;2023-04-16T12:02:52;24.70;99.90
16976;DHT22;8604;48.148;-1.786;2023-04-16T12:05:30;24.70;99.90
16976;DHT22;8604;48.148;-1.786;2023-04-16T12:07:59;24.80;99.90
16976;DHT22;8604;48.148;-1.786;2023-04-16T12:10:56;24.80;99.90
16976;DHT22;8604;48.148;-1.786;2023-04-16T12:13:25;24.70;99.90
16976;DHT22;8604;48.148;-1.786;2023-04-16T12:19:49;24.80;99.90
16976;DHT22;8604;48.148;-1.786;2023-04-16T12:22:45;24.60;99.90
16976;DHT22;8604;48.148;-1.786;2023-04-16T12:25:15;24.50;99.90
16976;DHT22;8604;48.148;-1.786;2023-04-16T12:27:45;24.40;99.90
16976;DHT22;8604;48.148;-1.786;2023-04-16T12:30:21;24.20;99.90
16976;DHT22;8604;48.148;-1.786;2023-04-16T12:36:18;23.70;99.90
16976;DHT22;8604;48.148;-1.786;2023-04-16T12:38:48;23.70;99.90
16976;DHT22;8604;48.148;-1.786;2023-04-16T12:41:41;23.20;99.90
16976;DHT22;8604;48.148;-1.786;2023-04-16T12:44:15;22.70;99.90
16976;DHT22;8604;48.148;-1.786;2023-04-16T12:46:44;22.50;99.90
16976;DHT22;8604;48.148;-1.786;2023-04-16T12:49:12;22.50;99.90
16976;DHT22;8604;48.148;-1.786;2023-04-16T12:51:41;22.50;99.90
16976;DHT22;8604;48.148;-1.786;2023-04-16T12:54:10;22.60;99.90
16976;DHT22;8604;48.148;-1.786;2023-04-16T12:56:39;22.50;99.90
16976;DHT22;8604;48.148;-1.786;2023-04-16T12:59:07;22.40;99.90
16976;DHT22;8604;48.148;-1.786;2023-04-16T13:01:36;22.40;99.90
16976;DHT22;8604;48.148;-1.786;2023-04-16T13:04:05;22.40;99.90
16976;DHT22;8604;48.148;-1.786;2023-04-16T13:06:33;22.00;99.90
16976;DHT22;8604;48.148;-1.786;2023-04-16T13:09:03;21.90;99.90
16976;DHT22;8604;48.148;-1.786;2023-04-16T13:11:34;21.70;99.90
16976;DHT22;8604;48.148;-1.786;2023-04-16T13:14:02;21.60;99.90
16976;DHT22;8604;48.148;-1.786;2023-04-16T13:16:32;21.80;99.90
16976;DHT22;8604;48.148;-1.786;2023-04-16T13:19:01;21.80;99.90
16976;DHT22;8604;48.148;-1.786;2023-04-16T13:21:29;21.80;99.90
16976;DHT22;8604;48.148;-1.786;2023-04-16T13:23:58;21.70;99.90
16976;DHT22;8604;48.148;-1.786;2023-04-16T13:26:26;21.50;99.90
16976;DHT22;8604;48.148;-1.786;2023-04-16T13:28:56;21.30;99.90
16976;DHT22;8604;48.148;-1.786;2023-04-16T13:31:45;21.10;99.90
16976;DHT22;8604;48.148;-1.786;2023-04-16T13:34:14;21.00;99.90
16976;DHT22;8604;48.148;-1.786;2023-04-16T13:36:42;21.00;99.90
16976;DHT22;8604;48.148;-1.786;2023-04-16T13:39:17;21.00;99.90
16976;DHT22;8604;48.148;-1.786;2023-04-16T13:41:45;21.10;99.90
16976;DHT22;8604;48.148;-1.786;2023-04-16T13:44:26;21.10;99.90
16976;DHT22;8604;48.148;-1.786;2023-04-16T13:46:54;20.90;99.90
16976;DHT22;8604;48.148;-1.786;2023-04-16T13:49:23;20.60;99.90
16976;DHT22;8604;48.148;-1.786;2023-04-16T13:51:53;20.70;99.90
16976;DHT22;8604;48.148;-1.786;2023-04-16T13:54:21;20.70;99.90
16976;DHT22;8604;48.148;-1.786;2023-04-16T13:56:50;20.80;99.90
16976;DHT22;8604;48.148;-1.786;2023-04-16T13:59:18;20.80;99.90
16976;DHT22;8604;48.148;-1.786;2023-04-16T14:01:49;20.80;99.90
16976;DHT22;8604;48.148;-1.786;2023-04-16T14:04:18;20.70;99.90
16976;DHT22;8604;48.148;-1.786;2023-04-16T14:06:48;20.80;99.90
16976;DHT22;8604;48.148;-1.786;2023-04-16T14:09:17;20.50;99.90
16976;DHT22;8604;48.148;-1.786;2023-04-16T14:11:45;20.30;99.90
16976;DHT22;8604;48.148;-1.786;2023-04-16T14:14:19;20.30;99.90
16976;DHT22;8604;48.148;-1.786;2023-04-16T14:16:48;20.10;99.90
16976;DHT22;8604;48.148;-1.786;2023-04-16T14:19:17;19.90;99.90
16976;DHT22;8604;48.148;-1.786;2023-04-16T14:21:45;19.80;99.90
16976;DHT22;8604;48.148;-1.786;2023-04-16T14:24:13;19.70;99.90
16976;DHT22;8604;48.148;-1.786;2023-04-16T14:26:42;19.80;99.90
16976;DHT22;8604;48.148;-1.786;2023-04-16T14:29:11;19.80;99.90
16976;DHT22;8604;48.148;-1.786;2023-04-16T14:31:39;19.80;99.90
16976;DHT22;8604;48.148;-1.786;2023-04-16T14:34:09;19.80;99.90
16976;DHT22;8604;48.148;-1.786;2023-04-16T14:36:38;19.70;99.90
16976;DHT22;8604;48.148;-1.786;2023-04-16T14:39:06;19.40;99.90
16976;DHT22;8604;48.148;-1.786;2023-04-16T14:41:35;19.40;99.90
16976;DHT22;8604;48.148;-1.786;2023-04-16T14:44:04;19.30;99.90
16976;DHT22;8604;48.148;-1.786;2023-04-16T14:46:32;19.40;99.90
16976;DHT22;8604;48.148;-1.786;2023-04-16T14:49:02;19.50;99.90
16976;DHT22;8604;48.148;-1.786;2023-04-16T14:51:32;19.50;99.90
16976;DHT22;8604;48.148;-1.786;2023-04-16T14:54:01;19.50;99.90
16976;DHT22;8604;48.148;-1.786;2023-04-16T14:56:29;19.40;99.90
16976;DHT22;8604;48.148;-1.786;2023-04-16T14:58:58;19.40;99.90
16976;DHT22;8604;48.148;-1.786;2023-04-16T15:01:26;19.40;99.90
16976;DHT22;8604;48.148;-1.786;2023-04-16T15:03:55;19.20;99.90
16976;DHT22;8604;48.148;-1.786;2023-04-16T15:06:27;19.20;99.90
16976;DHT22;8604;48.148;-1.786;2023-04-16T15:08:57;19.20;99.90
16976;DHT22;8604;48.148;-1.786;2023-04-16T15:11:25;19.10;99.90
16976;DHT22;8604;48.148;-1.786;2023-04-16T15:13:54;19.10;99.90
16976;DHT22;8604;48.148;-1.786;2023-04-16T15:16:23;19.10;99.90
16976;DHT22;8604;48.148;-1.786;2023-04-16T15:18:51;19.00;99.90
16976;DHT22;8604;48.148;-1.786;2023-04-16T15:21:20;19.00;99.90
16976;DHT22;8604;48.148;-1.786;2023-04-16T15:23:48;18.80;99.90
16976;DHT22;8604;48.148;-1.786;2023-04-16T15:26:18;18.70;99.90
16976;DHT22;8604;48.148;-1.786;2023-04-16T15:28:46;18.60;99.90
16976;DHT22;8604;48.148;-1.786;2023-04-16T15:31:15;18.60;99.90
16976;DHT22;8604;48.148;-1.786;2023-04-16T15:33:43;18.60;99.90
16976;DHT22;8604;48.148;-1.786;2023-04-16T15:36:11;18.60;99.90
16976;DHT22;8604;48.148;-1.786;2023-04-16T15:38:40;18.60;99.90
16976;DHT22;8604;48.148;-1.786;2023-04-16T15:41:09;18.60;99.90
16976;DHT22;8604;48.148;-1.786;2023-04-16T15:43:39;18.60;99.90
16976;DHT22;8604;48.148;-1.786;2023-04-16T15:46:07;18.50;99.90
16976;DHT22;8604;48.148;-1.786;2023-04-16T15:48:38;18.50;99.90
16976;DHT22;8604;48.148;-1.786;2023-04-16T15:51:08;18.40;99.90
16976;DHT22;8604;48.148;-1.786;2023-04-16T15:53:38;18.40;99.90
16976;DHT22;8604;48.148;-1.786;2023-04-16T15:56:07;18.40;99.90
16976;DHT22;8604;48.148;-1.786;2023-04-16T15:58:36;18.40;99.90
16976;DHT22;8604;48.148;-1.786;2023-04-16T16:01:08;18.40;99.90
16976;DHT22;8604;48.148;-1.786;2023-04-16T16:03:36;18.40;99.90
16976;DHT22;8604;48.148;-1.786;2023-04-16T16:06:05;18.40;99.90
16976;DHT22;8604;48.148;-1.786;2023-04-16T16:08:34;18.40;99.90